KDDC/DDC METAR and TAF weather

Enter ICAO airport designator
Station Type Date Time Source
KDDC METAR 2019/02/23 17:13 UTC NOAA

KDDC 231713Z AUTO 34015KT 1/4SM SN FG VV005 00/M01 A2959 RMK AO2 P0004 T00001011 $


Station Type Date Time Source
KDDC Decoded METAR 2019/02/23 17:13 UTC NOAA

DODGE CITY REGIONAL AIRPORT, KS, United States (KDDC) 37-46N 99-58W 789M
Feb 23, 2019 - 12:13 PM EST / 2019.02.23 1713 UTC
Wind: from the NNW (340 degrees) at 17 MPH (15 KT):0
Visibility: 1/4 mile(s):0
Sky conditions: obscured
Weather: snow; fog
Precipitation last hour: 0.04 inches
Temperature: 32.0 F (0.0 C)
Windchill: 21 F (-6 C):1
Dew Point: 30.0 F (-1.1 C)
Relative Humidity: 92%
Pressure (altimeter): 29.59 in. Hg (1002 hPa)
ob: KDDC 231713Z AUTO 34015KT 1/4SM SN FG VV005 00/M01 A2959 RMK AO2 P0004 T00001011
cycle: 17

Station Type Date Time Source
KDDC TAF 2019/02/23 17:34 UTC NOAA

TAF
AMD KDDC 231632Z 2317/2412 34025G35KT 1/4SM SN BLSN OVC002
FM232200 33035G45KT 1/2SM BLSN BKN010
FM240000 33025G35KT P6SM SCT050
FM240300 31013KT P6SM SCT250
FM240900 VRB06KT P6SM SKC


Example: see airport list